Flugplatz Renneritz

Für EDOX sind keine METAR/TAF Berichte vorhanden.
Es werden die Flugwettermeldungen vom Flugplatz Leipzig Halle in 18 km Entfernung angezeigt.

Bericht für EDDP

vom 27.09. um 00:50 UTC

Wind 7 kt aus 150°

Sichtweite 10 km oder mehr

gering bewölkt in 3000 ft

Temperatur 5.0°C

Taupunkt 5.0°C

Luftfeuchtigkeit 100%

Luftdruck 998 hPa

keine wesentliche Wetteränderung innerhalb den nächsten 2 Stunden zu erwarten

EDDP 270050Z 15007KT 9999 FEW030 05/05 Q0998 NOSIG

Prognose für EDDP

vom 26.09. um 23:00 UTC

Zwischen 00:00 UTC und 00:00 UTC

Wind 9 kt aus 200°

Sichtweite 10 km oder mehr

aufgelockert bewölkt in 4000 ft

TAF EDDP 262300Z 2700/2724 20009KT 9999 SCT040
Impressum